Portada
METAR-TAF:

METAR-TAF

Aeroports :

São Paulo-Congonhas, São Paulo, Brasil

latitud: 23-37S, longitud: 046-39W, altitud: 803 m

Observació

L'informe es va fer fa 17 minuts, a les 07:00 UTC
Vent 7 kt del Nord
Temperatura 22°C
Humitat 73%
Pressió 1013 hPa
Visibilitat 10 km o més
sense núvols per sota de 1500 mi sense presència de cumulonimbus.

METAR: SBSP 030700Z AUTO 01007KT CAVOK 22/17 Q1013

Hora: 04:17 (07:17 UTC)

Pronòstic

L'informe es va fer fa 5 hores i 2 minuts, a les 02:15 UTC
Pronòstic vàlid del 03 a les 06 UTC al 03 a les 18 UTC
Vent 5 kt del Nord-Est
Visibilitat 10 km o més
sense núvols per sota de 1500 mi sense presència de cumulonimbus.
Evolucionant progressivament
l' 03 a les 12 UTC al 03 a les 14 UTC
Vent 10 kt del Nord-Oest
Evolucionant progressivament
l' 03 a les 14 UTC al 03 a les 16 UTC
Cel ennuvolat a una alçada de 4000 ft

TAF: SBSP 030215Z 0306/0318 04005KT CAVOK TN20/0309Z TX29/0317Z BECMG 0312/0314 32010KT BECMG 0314/0316 BKN040 RMK PGG

Observacions i pronòstics meteorològics de més de 4000 aeroports (METAR i TAF).

Les estacions disponibles són els punts grocs i vermells al mapa.

Posi el ratolí al punt desitjat per veure el nom de l'estació.

Feu clic per veure les observacions i els pronòstics meteorològics.

Per canviar el mapa: feu clic els botons verds amb una creu de color negre per apropar; al botó verd amb un guió per allunyar la imatge; o en les fletxes verdes per a mapes adjacents.


METAR-TAF: